sensor_id;sensor_type;location;lat;lon;timestamp;P1;durP1;ratioP1;P2;durP2;ratioP2
18689;SDS011;9782;52.930;15.562;2022-10-22T00:31:31;15.48;;;13.07;;
18689;SDS011;9782;52.930;15.562;2022-10-22T04:41:23;29.92;;;17.90;;
18689;SDS011;9782;52.930;15.562;2022-10-22T05:15:51;28.25;;;17.45;;
18689;SDS011;9782;52.930;15.562;2022-10-22T05:20:46;21.63;;;15.13;;
18689;SDS011;9782;52.930;15.562;2022-10-22T05:52:39;24.30;;;16.13;;
18689;SDS011;9782;52.930;15.562;2022-10-22T06:36:03;13.93;;;12.50;;
18689;SDS011;9782;52.930;15.562;2022-10-22T10:36:29;18.75;;;14.25;;
18689;SDS011;9782;52.930;15.562;2022-10-22T14:54:08;74.60;;;45.47;;
18689;SDS011;9782;52.930;15.562;2022-10-22T14:56:35;50.80;;;33.40;;
18689;SDS011;9782;52.930;15.562;2022-10-22T14:59:02;47.38;;;31.23;;
18689;SDS011;9782;52.930;15.562;2022-10-22T15:01:29;43.50;;;29.47;;
18689;SDS011;9782;52.930;15.562;2022-10-22T15:03:56;44.70;;;32.38;;
18689;SDS011;9782;52.930;15.562;2022-10-22T15:06:23;55.17;;;36.83;;
18689;SDS011;9782;52.930;15.562;2022-10-22T15:08:50;48.33;;;31.67;;
18689;SDS011;9782;52.930;15.562;2022-10-22T15:11:18;50.60;;;32.50;;
18689;SDS011;9782;52.930;15.562;2022-10-22T15:13:46;56.27;;;37.20;;
18689;SDS011;9782;52.930;15.562;2022-10-22T15:16:13;65.37;;;42.97;;
18689;SDS011;9782;52.930;15.562;2022-10-22T15:18:42;66.73;;;41.63;;
18689;SDS011;9782;52.930;15.562;2022-10-22T15:21:12;75.93;;;49.40;;
18689;SDS011;9782;52.930;15.562;2022-10-22T15:23:40;53.47;;;35.23;;
18689;SDS011;9782;52.930;15.562;2022-10-22T15:26:08;71.30;;;44.67;;
18689;SDS011;9782;52.930;15.562;2022-10-22T15:28:38;69.33;;;44.63;;
18689;SDS011;9782;52.930;15.562;2022-10-22T15:31:09;82.47;;;52.03;;
18689;SDS011;9782;52.930;15.562;2022-10-22T15:33:48;159.03;;;71.73;;
18689;SDS011;9782;52.930;15.562;2022-10-22T15:36:21;193.93;;;99.93;;
18689;SDS011;9782;52.930;15.562;2022-10-22T15:39:13;184.17;;;84.60;;
18689;SDS011;9782;52.930;15.562;2022-10-22T15:41:47;149.57;;;78.77;;
18689;SDS011;9782;52.930;15.562;2022-10-22T15:44:24;52.83;;;33.13;;
18689;SDS011;9782;52.930;15.562;2022-10-22T15:46:52;60.17;;;37.77;;
18689;SDS011;9782;52.930;15.562;2022-10-22T15:49:20;185.70;;;97.20;;
18689;SDS011;9782;52.930;15.562;2022-10-22T15:51:48;53.40;;;31.83;;
18689;SDS011;9782;52.930;15.562;2022-10-22T15:54:16;49.00;;;29.77;;
18689;SDS011;9782;52.930;15.562;2022-10-22T15:56:47;64.23;;;34.43;;
18689;SDS011;9782;52.930;15.562;2022-10-22T15:59:15;47.07;;;30.43;;
18689;SDS011;9782;52.930;15.562;2022-10-22T16:01:44;51.37;;;31.40;;
18689;SDS011;9782;52.930;15.562;2022-10-22T16:04:12;53.00;;;31.40;;
18689;SDS011;9782;52.930;15.562;2022-10-22T16:06:41;57.87;;;33.17;;
18689;SDS011;9782;52.930;15.562;2022-10-22T16:09:09;65.23;;;40.57;;
18689;SDS011;9782;52.930;15.562;2022-10-22T16:11:39;70.63;;;42.17;;
18689;SDS011;9782;52.930;15.562;2022-10-22T16:14:07;67.37;;;41.97;;
18689;SDS011;9782;52.930;15.562;2022-10-22T16:16:36;76.17;;;44.13;;
18689;SDS011;9782;52.930;15.562;2022-10-22T16:19:08;83.83;;;47.57;;
18689;SDS011;9782;52.930;15.562;2022-10-22T16:34:52;90.20;;;46.70;;
18689;SDS011;9782;52.930;15.562;2022-10-22T16:37:20;99.67;;;48.07;;
18689;SDS011;9782;52.930;15.562;2022-10-22T16:39:47;95.60;;;48.37;;
18689;SDS011;9782;52.930;15.562;2022-10-22T16:42:15;90.50;;;46.07;;
18689;SDS011;9782;52.930;15.562;2022-10-22T16:44:42;87.37;;;43.77;;
18689;SDS011;9782;52.930;15.562;2022-10-22T16:47:10;86.03;;;41.57;;
18689;SDS011;9782;52.930;15.562;2022-10-22T16:49:37;92.00;;;46.43;;
18689;SDS011;9782;52.930;15.562;2022-10-22T16:52:06;94.47;;;43.27;;
18689;SDS011;9782;52.930;15.562;2022-10-22T16:54:33;93.00;;;42.53;;
18689;SDS011;9782;52.930;15.562;2022-10-22T16:57:01;86.83;;;40.80;;
18689;SDS011;9782;52.930;15.562;2022-10-22T16:59:28;83.77;;;41.30;;
18689;SDS011;9782;52.930;15.562;2022-10-22T17:01:55;88.50;;;42.50;;
18689;SDS011;9782;52.930;15.562;2022-10-22T17:04:23;90.47;;;42.17;;
18689;SDS011;9782;52.930;15.562;2022-10-22T17:06:51;84.77;;;41.03;;
18689;SDS011;9782;52.930;15.562;2022-10-22T17:09:20;86.03;;;41.20;;
18689;SDS011;9782;52.930;15.562;2022-10-22T17:11:48;77.07;;;40.87;;
18689;SDS011;9782;52.930;15.562;2022-10-22T17:14:15;73.83;;;37.90;;
18689;SDS011;9782;52.930;15.562;2022-10-22T17:16:43;77.07;;;36.77;;
18689;SDS011;9782;52.930;15.562;2022-10-22T17:19:13;69.40;;;35.30;;
18689;SDS011;9782;52.930;15.562;2022-10-22T17:21:41;66.97;;;35.10;;
18689;SDS011;9782;52.930;15.562;2022-10-22T17:25:21;66.93;;;35.63;;
18689;SDS011;9782;52.930;15.562;2022-10-22T17:27:50;65.33;;;35.67;;
18689;SDS011;9782;52.930;15.562;2022-10-22T17:30:18;67.70;;;35.07;;
18689;SDS011;9782;52.930;15.562;2022-10-22T17:32:45;70.70;;;35.73;;
18689;SDS011;9782;52.930;15.562;2022-10-22T17:35:13;77.23;;;38.90;;
18689;SDS011;9782;52.930;15.562;2022-10-22T17:37:41;86.93;;;45.17;;
18689;SDS011;9782;52.930;15.562;2022-10-22T17:40:08;123.40;;;65.50;;
18689;SDS011;9782;52.930;15.562;2022-10-22T17:42:37;107.60;;;57.53;;
18689;SDS011;9782;52.930;15.562;2022-10-22T17:45:05;93.23;;;47.03;;
18689;SDS011;9782;52.930;15.562;2022-10-22T17:47:32;102.67;;;43.47;;
18689;SDS011;9782;52.930;15.562;2022-10-22T17:50:01;113.53;;;40.43;;
18689;SDS011;9782;52.930;15.562;2022-10-22T17:52:28;134.57;;;42.70;;
18689;SDS011;9782;52.930;15.562;2022-10-22T17:54:55;140.37;;;37.63;;
18689;SDS011;9782;52.930;15.562;2022-10-22T17:57:22;161.53;;;35.73;;
18689;SDS011;9782;52.930;15.562;2022-10-22T17:59:51;113.67;;;35.37;;
18689;SDS011;9782;52.930;15.562;2022-10-22T18:02:18;95.57;;;35.60;;
18689;SDS011;9782;52.930;15.562;2022-10-22T18:04:45;110.53;;;39.50;;
18689;SDS011;9782;52.930;15.562;2022-10-22T18:07:16;130.63;;;50.53;;
18689;SDS011;9782;52.930;15.562;2022-10-22T18:09:44;145.47;;;61.57;;
18689;SDS011;9782;52.930;15.562;2022-10-22T18:12:12;159.47;;;52.70;;
18689;SDS011;9782;52.930;15.562;2022-10-22T18:14:42;137.87;;;49.83;;
18689;SDS011;9782;52.930;15.562;2022-10-22T18:17:12;126.57;;;48.73;;
18689;SDS011;9782;52.930;15.562;2022-10-22T18:19:39;124.13;;;48.13;;
18689;SDS011;9782;52.930;15.562;2022-10-22T18:22:07;115.67;;;45.43;;
18689;SDS011;9782;52.930;15.562;2022-10-22T18:24:34;135.97;;;46.97;;
18689;SDS011;9782;52.930;15.562;2022-10-22T18:27:03;132.77;;;47.97;;
18689;SDS011;9782;52.930;15.562;2022-10-22T18:29:30;169.67;;;55.70;;
18689;SDS011;9782;52.930;15.562;2022-10-22T18:31:57;151.43;;;59.57;;
18689;SDS011;9782;52.930;15.562;2022-10-22T18:34:25;170.53;;;66.63;;
18689;SDS011;9782;52.930;15.562;2022-10-22T18:36:54;169.57;;;78.53;;
18689;SDS011;9782;52.930;15.562;2022-10-22T18:39:21;177.17;;;72.37;;
18689;SDS011;9782;52.930;15.562;2022-10-22T18:41:48;242.80;;;75.40;;
18689;SDS011;9782;52.930;15.562;2022-10-22T18:44:15;194.90;;;67.70;;
18689;SDS011;9782;52.930;15.562;2022-10-22T18:46:43;179.60;;;66.33;;
18689;SDS011;9782;52.930;15.562;2022-10-22T18:49:12;177.90;;;62.47;;
18689;SDS011;9782;52.930;15.562;2022-10-22T18:51:45;109.83;;;53.03;;
18689;SDS011;9782;52.930;15.562;2022-10-22T18:54:17;126.17;;;62.40;;
18689;SDS011;9782;52.930;15.562;2022-10-22T18:56:45;103.20;;;55.83;;
18689;SDS011;9782;52.930;15.562;2022-10-22T18:59:13;108.93;;;56.87;;
18689;SDS011;9782;52.930;15.562;2022-10-22T19:01:43;113.63;;;60.40;;
18689;SDS011;9782;52.930;15.562;2022-10-22T19:04:11;81.87;;;44.23;;
